sensor_id;sensor_type;location;lat;lon;timestamp;P1;durP1;ratioP1;P2;durP2;ratioP2
7485;SDS011;3784;54.098;9.998;2022-10-16T00:01:05;14.27;;;11.17;;
7485;SDS011;3784;54.098;9.998;2022-10-16T00:03:37;11.03;;;9.83;;
7485;SDS011;3784;54.098;9.998;2022-10-16T00:06:05;11.70;;;10.60;;
7485;SDS011;3784;54.098;9.998;2022-10-16T00:08:32;10.87;;;9.77;;
7485;SDS011;3784;54.098;9.998;2022-10-16T00:11:21;11.50;;;10.37;;
7485;SDS011;3784;54.098;9.998;2022-10-16T00:13:49;11.57;;;10.33;;
7485;SDS011;3784;54.098;9.998;2022-10-16T00:16:19;13.07;;;10.73;;
7485;SDS011;3784;54.098;9.998;2022-10-16T00:18:46;12.37;;;9.70;;
7485;SDS011;3784;54.098;9.998;2022-10-16T00:21:14;13.83;;;10.40;;
7485;SDS011;3784;54.098;9.998;2022-10-16T00:23:45;14.43;;;9.80;;
7485;SDS011;3784;54.098;9.998;2022-10-16T00:26:14;11.43;;;10.30;;
7485;SDS011;3784;54.098;9.998;2022-10-16T00:28:41;11.57;;;9.80;;
7485;SDS011;3784;54.098;9.998;2022-10-16T00:31:09;12.40;;;10.03;;
7485;SDS011;3784;54.098;9.998;2022-10-16T00:33:37;11.30;;;9.93;;
7485;SDS011;3784;54.098;9.998;2022-10-16T00:36:05;10.60;;;9.50;;
7485;SDS011;3784;54.098;9.998;2022-10-16T00:38:33;11.20;;;9.60;;
7485;SDS011;3784;54.098;9.998;2022-10-16T00:41:00;12.30;;;9.83;;
7485;SDS011;3784;54.098;9.998;2022-10-16T00:43:37;11.37;;;10.07;;
7485;SDS011;3784;54.098;9.998;2022-10-16T00:46:15;11.40;;;9.37;;
7485;SDS011;3784;54.098;9.998;2022-10-16T00:51:30;15.07;;;9.17;;
7485;SDS011;3784;54.098;9.998;2022-10-16T00:53:59;11.57;;;9.87;;
7485;SDS011;3784;54.098;9.998;2022-10-16T00:56:26;10.27;;;9.27;;
7485;SDS011;3784;54.098;9.998;2022-10-16T00:58:53;11.43;;;9.27;;
7485;SDS011;3784;54.098;9.998;2022-10-16T01:01:19;13.17;;;9.60;;
7485;SDS011;3784;54.098;9.998;2022-10-16T01:03:46;11.03;;;9.00;;
7485;SDS011;3784;54.098;9.998;2022-10-16T01:06:18;12.30;;;9.40;;
7485;SDS011;3784;54.098;9.998;2022-10-16T01:14:32;12.20;;;9.20;;
7485;SDS011;3784;54.098;9.998;2022-10-16T01:17:04;10.97;;;9.07;;
7485;SDS011;3784;54.098;9.998;2022-10-16T01:19:41;10.30;;;9.20;;
7485;SDS011;3784;54.098;9.998;2022-10-16T01:22:17;14.13;;;8.93;;
7485;SDS011;3784;54.098;9.998;2022-10-16T01:24:45;12.73;;;9.93;;
7485;SDS011;3784;54.098;9.998;2022-10-16T01:27:15;9.93;;;8.90;;
7485;SDS011;3784;54.098;9.998;2022-10-16T01:30:07;10.50;;;9.40;;
7485;SDS011;3784;54.098;9.998;2022-10-16T01:32:41;10.80;;;9.30;;
7485;SDS011;3784;54.098;9.998;2022-10-16T01:35:18;18.77;;;9.47;;
7485;SDS011;3784;54.098;9.998;2022-10-16T01:37:53;10.50;;;9.10;;
7485;SDS011;3784;54.098;9.998;2022-10-16T01:40:26;10.50;;;9.33;;
7485;SDS011;3784;54.098;9.998;2022-10-16T01:42:56;11.07;;;9.30;;
7485;SDS011;3784;54.098;9.998;2022-10-16T01:45:26;12.03;;;9.63;;
7485;SDS011;3784;54.098;9.998;2022-10-16T01:47:54;13.10;;;9.80;;
7485;SDS011;3784;54.098;9.998;2022-10-16T01:50:21;11.10;;;9.57;;
7485;SDS011;3784;54.098;9.998;2022-10-16T01:52:49;13.77;;;9.57;;
7485;SDS011;3784;54.098;9.998;2022-10-16T01:55:19;12.70;;;8.50;;
7485;SDS011;3784;54.098;9.998;2022-10-16T01:57:57;15.17;;;8.50;;
7485;SDS011;3784;54.098;9.998;2022-10-16T02:00:24;11.67;;;9.73;;
7485;SDS011;3784;54.098;9.998;2022-10-16T02:02:51;9.77;;;8.53;;
7485;SDS011;3784;54.098;9.998;2022-10-16T02:05:22;11.00;;;8.33;;
7485;SDS011;3784;54.098;9.998;2022-10-16T02:07:52;12.13;;;8.53;;
7485;SDS011;3784;54.098;9.998;2022-10-16T02:10:18;9.53;;;7.43;;
7485;SDS011;3784;54.098;9.998;2022-10-16T02:12:49;12.03;;;7.93;;
7485;SDS011;3784;54.098;9.998;2022-10-16T02:15:20;9.40;;;8.00;;
7485;SDS011;3784;54.098;9.998;2022-10-16T02:17:46;8.47;;;7.47;;
7485;SDS011;3784;54.098;9.998;2022-10-16T02:20:13;10.03;;;6.87;;
7485;SDS011;3784;54.098;9.998;2022-10-16T02:22:43;10.83;;;7.80;;
7485;SDS011;3784;54.098;9.998;2022-10-16T02:25:15;8.37;;;7.13;;
7485;SDS011;3784;54.098;9.998;2022-10-16T02:27:55;8.87;;;6.03;;
7485;SDS011;3784;54.098;9.998;2022-10-16T02:30:35;8.20;;;6.20;;
7485;SDS011;3784;54.098;9.998;2022-10-16T02:33:05;6.63;;;5.97;;
7485;SDS011;3784;54.098;9.998;2022-10-16T02:35:35;9.07;;;6.00;;
7485;SDS011;3784;54.098;9.998;2022-10-16T02:38:03;8.03;;;5.20;;
7485;SDS011;3784;54.098;9.998;2022-10-16T02:40:30;7.90;;;5.40;;
7485;SDS011;3784;54.098;9.998;2022-10-16T02:42:57;7.07;;;5.03;;
7485;SDS011;3784;54.098;9.998;2022-10-16T02:45:23;5.80;;;4.73;;
7485;SDS011;3784;54.098;9.998;2022-10-16T02:47:50;6.67;;;4.80;;
7485;SDS011;3784;54.098;9.998;2022-10-16T02:50:17;5.13;;;4.50;;
7485;SDS011;3784;54.098;9.998;2022-10-16T02:52:43;6.53;;;4.00;;
7485;SDS011;3784;54.098;9.998;2022-10-16T02:55:10;5.83;;;4.47;;
7485;SDS011;3784;54.098;9.998;2022-10-16T02:57:36;6.67;;;4.33;;
7485;SDS011;3784;54.098;9.998;2022-10-16T03:00:04;6.53;;;3.93;;
7485;SDS011;3784;54.098;9.998;2022-10-16T03:02:31;5.37;;;4.30;;
7485;SDS011;3784;54.098;9.998;2022-10-16T03:04:57;10.03;;;3.87;;
7485;SDS011;3784;54.098;9.998;2022-10-16T03:07:24;8.50;;;3.93;;
7485;SDS011;3784;54.098;9.998;2022-10-16T03:09:51;4.60;;;3.50;;
7485;SDS011;3784;54.098;9.998;2022-10-16T03:12:17;5.93;;;4.20;;
7485;SDS011;3784;54.098;9.998;2022-10-16T03:14:44;5.60;;;3.63;;
7485;SDS011;3784;54.098;9.998;2022-10-16T03:17:10;6.73;;;3.07;;
7485;SDS011;3784;54.098;9.998;2022-10-16T03:19:37;5.67;;;3.57;;
7485;SDS011;3784;54.098;9.998;2022-10-16T03:22:03;6.17;;;3.77;;
7485;SDS011;3784;54.098;9.998;2022-10-16T03:24:30;4.90;;;3.30;;
7485;SDS011;3784;54.098;9.998;2022-10-16T03:26:57;6.33;;;3.47;;
7485;SDS011;3784;54.098;9.998;2022-10-16T03:29:23;3.87;;;3.17;;
7485;SDS011;3784;54.098;9.998;2022-10-16T03:31:51;7.73;;;3.20;;
7485;SDS011;3784;54.098;9.998;2022-10-16T03:34:18;5.57;;;3.20;;
7485;SDS011;3784;54.098;9.998;2022-10-16T03:36:44;4.37;;;3.37;;
7485;SDS011;3784;54.098;9.998;2022-10-16T03:39:11;3.60;;;2.93;;
7485;SDS011;3784;54.098;9.998;2022-10-16T03:41:37;6.57;;;3.13;;
7485;SDS011;3784;54.098;9.998;2022-10-16T03:44:04;4.60;;;3.07;;
7485;SDS011;3784;54.098;9.998;2022-10-16T03:46:30;7.47;;;2.80;;
7485;SDS011;3784;54.098;9.998;2022-10-16T03:48:57;6.10;;;2.93;;
7485;SDS011;3784;54.098;9.998;2022-10-16T03:51:23;7.30;;;2.70;;
7485;SDS011;3784;54.098;9.998;2022-10-16T03:53:50;4.70;;;2.90;;
7485;SDS011;3784;54.098;9.998;2022-10-16T03:56:16;5.30;;;2.63;;
7485;SDS011;3784;54.098;9.998;2022-10-16T03:58:43;4.83;;;2.90;;
7485;SDS011;3784;54.098;9.998;2022-10-16T04:01:09;5.83;;;2.53;;
7485;SDS011;3784;54.098;9.998;2022-10-16T04:03:36;4.47;;;2.70;;
7485;SDS011;3784;54.098;9.998;2022-10-16T04:06:02;8.53;;;3.23;;
7485;SDS011;3784;54.098;9.998;2022-10-16T04:08:29;7.00;;;2.70;;
7485;SDS011;3784;54.098;9.998;2022-10-16T04:10:55;3.90;;;2.93;;
7485;SDS011;3784;54.098;9.998;2022-10-16T04:13:22;5.00;;;2.80;;
7485;SDS011;3784;54.098;9.998;2022-10-16T04:15:48;5.10;;;2.80;;
7485;SDS011;3784;54.098;9.998;2022-10-16T04:18:15;7.63;;;2.93;;
7485;SDS011;3784;54.098;9.998;2022-10-16T04:20:41;6.73;;;2.80;;
7485;SDS011;3784;54.098;9.998;2022-10-16T04:23:08;5.77;;;2.80;;
7485;SDS011;3784;54.098;9.998;2022-10-16T04:25:34;6.87;;;2.73;;
7485;SDS011;3784;54.098;9.998;2022-10-16T04:28:01;4.77;;;2.53;;
7485;SDS011;3784;54.098;9.998;2022-10-16T04:30:27;4.57;;;2.70;;
7485;SDS011;3784;54.098;9.998;2022-10-16T04:32:54;6.00;;;2.67;;
7485;SDS011;3784;54.098;9.998;2022-10-16T04:35:21;3.17;;;2.57;;
7485;SDS011;3784;54.098;9.998;2022-10-16T04:37:47;3.90;;;2.53;;
7485;SDS011;3784;54.098;9.998;2022-10-16T04:40:14;4.30;;;3.00;;
7485;SDS011;3784;54.098;9.998;2022-10-16T04:42:40;5.93;;;2.40;;
7485;SDS011;3784;54.098;9.998;2022-10-16T04:45:07;6.53;;;2.70;;
7485;SDS011;3784;54.098;9.998;2022-10-16T04:47:40;5.40;;;2.70;;
7485;SDS011;3784;54.098;9.998;2022-10-16T04:50:06;4.10;;;2.27;;
7485;SDS011;3784;54.098;9.998;2022-10-16T04:52:33;5.83;;;2.37;;
7485;SDS011;3784;54.098;9.998;2022-10-16T04:55:05;6.07;;;2.53;;
7485;SDS011;3784;54.098;9.998;2022-10-16T04:57:32;3.57;;;2.50;;
7485;SDS011;3784;54.098;9.998;2022-10-16T04:59:59;6.00;;;2.60;;
7485;SDS011;3784;54.098;9.998;2022-10-16T05:02:26;5.10;;;2.57;;
7485;SDS011;3784;54.098;9.998;2022-10-16T05:04:52;4.90;;;2.20;;
7485;SDS011;3784;54.098;9.998;2022-10-16T05:07:19;5.60;;;2.70;;
7485;SDS011;3784;54.098;9.998;2022-10-16T05:09:45;5.10;;;2.37;;
7485;SDS011;3784;54.098;9.998;2022-10-16T05:12:12;4.60;;;2.50;;
7485;SDS011;3784;54.098;9.998;2022-10-16T05:14:38;7.03;;;2.50;;
7485;SDS011;3784;54.098;9.998;2022-10-16T05:17:05;4.60;;;2.47;;
7485;SDS011;3784;54.098;9.998;2022-10-16T05:19:31;5.10;;;2.13;;
7485;SDS011;3784;54.098;9.998;2022-10-16T05:21:58;7.83;;;2.33;;
7485;SDS011;3784;54.098;9.998;2022-10-16T05:24:24;3.30;;;1.90;;
7485;SDS011;3784;54.098;9.998;2022-10-16T05:26:51;5.40;;;2.10;;
7485;SDS011;3784;54.098;9.998;2022-10-16T05:29:18;3.77;;;2.00;;
7485;SDS011;3784;54.098;9.998;2022-10-16T05:31:44;5.67;;;2.13;;
7485;SDS011;3784;54.098;9.998;2022-10-16T05:34:11;6.10;;;2.20;;
7485;SDS011;3784;54.098;9.998;2022-10-16T05:36:37;6.57;;;2.10;;
7485;SDS011;3784;54.098;9.998;2022-10-16T05:39:04;5.40;;;1.90;;
7485;SDS011;3784;54.098;9.998;2022-10-16T05:41:30;5.33;;;1.87;;
7485;SDS011;3784;54.098;9.998;2022-10-16T05:43:57;4.27;;;2.00;;
7485;SDS011;3784;54.098;9.998;2022-10-16T05:46:24;5.57;;;1.93;;
7485;SDS011;3784;54.098;9.998;2022-10-16T05:48:53;7.00;;;2.03;;
7485;SDS011;3784;54.098;9.998;2022-10-16T05:51:20;5.33;;;2.27;;
7485;SDS011;3784;54.098;9.998;2022-10-16T05:53:46;4.10;;;1.97;;
7485;SDS011;3784;54.098;9.998;2022-10-16T05:56:13;4.03;;;2.30;;
7485;SDS011;3784;54.098;9.998;2022-10-16T05:58:40;2.63;;;1.97;;
7485;SDS011;3784;54.098;9.998;2022-10-16T06:01:09;7.43;;;2.20;;
7485;SDS011;3784;54.098;9.998;2022-10-16T06:03:37;3.53;;;1.90;;
7485;SDS011;3784;54.098;9.998;2022-10-16T06:06:14;5.00;;;1.70;;
7485;SDS011;3784;54.098;9.998;2022-10-16T06:08:42;3.57;;;1.80;;
7485;SDS011;3784;54.098;9.998;2022-10-16T06:11:12;5.53;;;1.97;;
7485;SDS011;3784;54.098;9.998;2022-10-16T06:13:40;5.10;;;2.07;;
7485;SDS011;3784;54.098;9.998;2022-10-16T06:16:12;3.77;;;1.93;;
7485;SDS011;3784;54.098;9.998;2022-10-16T06:18:39;4.97;;;1.87;;
7485;SDS011;3784;54.098;9.998;2022-10-16T06:21:09;3.17;;;1.77;;
7485;SDS011;3784;54.098;9.998;2022-10-16T06:23:56;5.07;;;2.10;;
7485;SDS011;3784;54.098;9.998;2022-10-16T06:26:24;7.20;;;2.23;;
7485;SDS011;3784;54.098;9.998;2022-10-16T06:28:56;5.27;;;2.17;;
7485;SDS011;3784;54.098;9.998;2022-10-16T06:31:23;4.77;;;2.10;;
7485;SDS011;3784;54.098;9.998;2022-10-16T06:33:54;5.37;;;2.00;;
7485;SDS011;3784;54.098;9.998;2022-10-16T06:36:20;5.17;;;2.13;;
7485;SDS011;3784;54.098;9.998;2022-10-16T06:38:47;4.97;;;2.00;;
7485;SDS011;3784;54.098;9.998;2022-10-16T06:41:17;4.77;;;2.33;;
7485;SDS011;3784;54.098;9.998;2022-10-16T06:43:46;3.70;;;2.20;;
7485;SDS011;3784;54.098;9.998;2022-10-16T06:46:14;4.47;;;2.50;;
7485;SDS011;3784;54.098;9.998;2022-10-16T06:48:42;4.73;;;2.00;;
7485;SDS011;3784;54.098;9.998;2022-10-16T06:51:18;3.67;;;2.47;;
7485;SDS011;3784;54.098;9.998;2022-10-16T06:53:46;5.10;;;2.10;;
7485;SDS011;3784;54.098;9.998;2022-10-16T06:56:30;3.07;;;2.17;;
7485;SDS011;3784;54.098;9.998;2022-10-16T06:58:58;5.93;;;2.40;;
7485;SDS011;3784;54.098;9.998;2022-10-16T07:01:25;2.60;;;2.20;;
7485;SDS011;3784;54.098;9.998;2022-10-16T07:03:52;5.07;;;2.50;;
7485;SDS011;3784;54.098;9.998;2022-10-16T07:06:20;3.80;;;2.77;;
7485;SDS011;3784;54.098;9.998;2022-10-16T07:08:47;2.93;;;2.50;;
7485;SDS011;3784;54.098;9.998;2022-10-16T07:11:15;6.40;;;2.93;;
7485;SDS011;3784;54.098;9.998;2022-10-16T07:13:47;5.30;;;3.20;;
7485;SDS011;3784;54.098;9.998;2022-10-16T07:16:22;4.57;;;2.77;;
7485;SDS011;3784;54.098;9.998;2022-10-16T07:18:50;4.30;;;2.67;;
7485;SDS011;3784;54.098;9.998;2022-10-16T07:21:21;5.30;;;2.67;;
7485;SDS011;3784;54.098;9.998;2022-10-16T07:23:52;5.70;;;2.90;;
7485;SDS011;3784;54.098;9.998;2022-10-16T07:26:19;6.07;;;3.70;;
7485;SDS011;3784;54.098;9.998;2022-10-16T07:28:46;6.70;;;3.20;;
7485;SDS011;3784;54.098;9.998;2022-10-16T07:31:14;6.83;;;3.30;;
7485;SDS011;3784;54.098;9.998;2022-10-16T07:33:43;5.10;;;3.87;;
7485;SDS011;3784;54.098;9.998;2022-10-16T07:36:11;6.33;;;3.90;;
7485;SDS011;3784;54.098;9.998;2022-10-16T07:38:41;4.77;;;3.50;;
7485;SDS011;3784;54.098;9.998;2022-10-16T07:41:12;6.90;;;3.57;;
7485;SDS011;3784;54.098;9.998;2022-10-16T07:43:45;7.00;;;3.83;;
7485;SDS011;3784;54.098;9.998;2022-10-16T07:46:12;4.93;;;3.53;;
7485;SDS011;3784;54.098;9.998;2022-10-16T07:48:38;4.30;;;3.50;;
7485;SDS011;3784;54.098;9.998;2022-10-16T07:51:05;6.23;;;4.47;;
7485;SDS011;3784;54.098;9.998;2022-10-16T07:53:32;4.57;;;3.63;;
7485;SDS011;3784;54.098;9.998;2022-10-16T07:55:59;6.53;;;4.00;;
7485;SDS011;3784;54.098;9.998;2022-10-16T07:58:30;6.83;;;4.53;;
7485;SDS011;3784;54.098;9.998;2022-10-16T08:00:57;5.90;;;3.50;;
7485;SDS011;3784;54.098;9.998;2022-10-16T08:03:24;7.87;;;4.30;;
7485;SDS011;3784;54.098;9.998;2022-10-16T08:05:51;7.30;;;4.53;;
7485;SDS011;3784;54.098;9.998;2022-10-16T08:08:18;5.33;;;4.70;;
7485;SDS011;3784;54.098;9.998;2022-10-16T08:10:45;8.70;;;4.50;;
7485;SDS011;3784;54.098;9.998;2022-10-16T08:13:11;5.83;;;4.60;;
7485;SDS011;3784;54.098;9.998;2022-10-16T08:15:42;5.40;;;4.33;;
7485;SDS011;3784;54.098;9.998;2022-10-16T08:18:09;8.53;;;4.73;;
7485;SDS011;3784;54.098;9.998;2022-10-16T08:20:35;4.60;;;4.00;;
7485;SDS011;3784;54.098;9.998;2022-10-16T08:23:02;6.73;;;4.70;;
7485;SDS011;3784;54.098;9.998;2022-10-16T08:25:29;6.73;;;4.47;;
7485;SDS011;3784;54.098;9.998;2022-10-16T08:27:56;7.27;;;4.53;;
7485;SDS011;3784;54.098;9.998;2022-10-16T08:30:23;7.17;;;4.40;;
7485;SDS011;3784;54.098;9.998;2022-10-16T08:32:50;6.17;;;4.40;;
7485;SDS011;3784;54.098;9.998;2022-10-16T08:35:16;6.90;;;4.20;;
7485;SDS011;3784;54.098;9.998;2022-10-16T08:37:43;11.47;;;4.00;;
7485;SDS011;3784;54.098;9.998;2022-10-16T08:40:16;6.40;;;4.17;;
7485;SDS011;3784;54.098;9.998;2022-10-16T08:48:24;5.03;;;4.03;;
7485;SDS011;3784;54.098;9.998;2022-10-16T08:50:55;7.17;;;4.67;;
7485;SDS011;3784;54.098;9.998;2022-10-16T08:53:24;5.90;;;3.70;;
7485;SDS011;3784;54.098;9.998;2022-10-16T08:55:54;8.67;;;4.27;;
7485;SDS011;3784;54.098;9.998;2022-10-16T08:58:22;6.90;;;4.37;;
7485;SDS011;3784;54.098;9.998;2022-10-16T09:00:51;10.47;;;4.50;;
7485;SDS011;3784;54.098;9.998;2022-10-16T09:05:52;9.37;;;4.30;;
7485;SDS011;3784;54.098;9.998;2022-10-16T09:11:21;7.03;;;3.97;;
7485;SDS011;3784;54.098;9.998;2022-10-16T09:16:35;5.17;;;3.90;;
7485;SDS011;3784;54.098;9.998;2022-10-16T09:19:09;8.37;;;4.10;;
7485;SDS011;3784;54.098;9.998;2022-10-16T09:21:38;6.57;;;4.30;;
7485;SDS011;3784;54.098;9.998;2022-10-16T09:24:09;5.30;;;3.97;;
7485;SDS011;3784;54.098;9.998;2022-10-16T09:26:40;5.37;;;4.10;;
7485;SDS011;3784;54.098;9.998;2022-10-16T09:29:08;7.10;;;4.40;;
7485;SDS011;3784;54.098;9.998;2022-10-16T09:31:38;6.90;;;4.20;;
7485;SDS011;3784;54.098;9.998;2022-10-16T09:34:05;4.53;;;4.00;;
7485;SDS011;3784;54.098;9.998;2022-10-16T09:36:35;6.77;;;3.93;;
7485;SDS011;3784;54.098;9.998;2022-10-16T09:39:07;7.80;;;3.90;;
7485;SDS011;3784;54.098;9.998;2022-10-16T09:41:35;6.77;;;4.00;;
7485;SDS011;3784;54.098;9.998;2022-10-16T09:44:04;6.93;;;4.00;;
7485;SDS011;3784;54.098;9.998;2022-10-16T09:46:42;6.00;;;3.60;;
7485;SDS011;3784;54.098;9.998;2022-10-16T09:49:24;6.30;;;3.90;;
7485;SDS011;3784;54.098;9.998;2022-10-16T09:52:04;7.73;;;3.90;;
7485;SDS011;3784;54.098;9.998;2022-10-16T09:54:32;9.13;;;4.33;;
7485;SDS011;3784;54.098;9.998;2022-10-16T09:57:05;7.57;;;3.63;;
7485;SDS011;3784;54.098;9.998;2022-10-16T09:59:33;6.50;;;3.90;;
7485;SDS011;3784;54.098;9.998;2022-10-16T10:02:03;7.37;;;4.23;;
7485;SDS011;3784;54.098;9.998;2022-10-16T10:04:42;8.17;;;4.10;;
7485;SDS011;3784;54.098;9.998;2022-10-16T10:07:26;8.23;;;4.03;;
7485;SDS011;3784;54.098;9.998;2022-10-16T10:09:55;8.50;;;3.83;;
7485;SDS011;3784;54.098;9.998;2022-10-16T10:12:27;6.40;;;3.33;;
7485;SDS011;3784;54.098;9.998;2022-10-16T10:14:58;5.50;;;3.67;;
7485;SDS011;3784;54.098;9.998;2022-10-16T10:17:30;5.03;;;3.50;;
7485;SDS011;3784;54.098;9.998;2022-10-16T10:19:59;5.10;;;3.70;;
7485;SDS011;3784;54.098;9.998;2022-10-16T10:22:31;6.03;;;3.10;;
7485;SDS011;3784;54.098;9.998;2022-10-16T10:55:23;9.77;;;2.90;;
7485;SDS011;3784;54.098;9.998;2022-10-16T11:06:04;5.07;;;2.40;;
7485;SDS011;3784;54.098;9.998;2022-10-16T11:08:38;4.90;;;2.63;;
7485;SDS011;3784;54.098;9.998;2022-10-16T11:11:11;5.77;;;2.43;;
7485;SDS011;3784;54.098;9.998;2022-10-16T11:16:18;5.73;;;2.80;;
7485;SDS011;3784;54.098;9.998;2022-10-16T11:21:36;8.07;;;2.20;;
7485;SDS011;3784;54.098;9.998;2022-10-16T11:24:10;5.53;;;2.77;;
7485;SDS011;3784;54.098;9.998;2022-10-16T11:26:43;6.60;;;1.90;;
7485;SDS011;3784;54.098;9.998;2022-10-16T11:29:12;6.27;;;2.10;;
7485;SDS011;3784;54.098;9.998;2022-10-16T11:31:45;5.10;;;2.00;;
7485;SDS011;3784;54.098;9.998;2022-10-16T11:34:17;5.37;;;2.20;;
7485;SDS011;3784;54.098;9.998;2022-10-16T11:36:50;3.57;;;1.90;;
7485;SDS011;3784;54.098;9.998;2022-10-16T11:39:48;7.00;;;2.33;;
7485;SDS011;3784;54.098;9.998;2022-10-16T11:42:16;5.40;;;1.93;;
7485;SDS011;3784;54.098;9.998;2022-10-16T11:50:32;5.23;;;2.00;;
7485;SDS011;3784;54.098;9.998;2022-10-16T11:55:44;7.20;;;2.03;;
7485;SDS011;3784;54.098;9.998;2022-10-16T12:00:55;6.97;;;2.07;;
7485;SDS011;3784;54.098;9.998;2022-10-16T12:06:29;6.67;;;2.20;;
7485;SDS011;3784;54.098;9.998;2022-10-16T12:08:59;5.93;;;2.20;;
7485;SDS011;3784;54.098;9.998;2022-10-16T12:16:39;6.13;;;2.30;;
7485;SDS011;3784;54.098;9.998;2022-10-16T12:19:17;5.40;;;2.00;;
7485;SDS011;3784;54.098;9.998;2022-10-16T12:21:46;6.63;;;2.23;;
7485;SDS011;3784;54.098;9.998;2022-10-16T12:24:21;6.70;;;2.10;;
7485;SDS011;3784;54.098;9.998;2022-10-16T12:26:53;5.63;;;2.30;;
7485;SDS011;3784;54.098;9.998;2022-10-16T12:31:57;5.07;;;2.17;;
7485;SDS011;3784;54.098;9.998;2022-10-16T12:34:39;7.27;;;2.30;;
7485;SDS011;3784;54.098;9.998;2022-10-16T12:37:13;6.90;;;2.23;;
7485;SDS011;3784;54.098;9.998;2022-10-16T12:39:41;5.10;;;2.20;;
7485;SDS011;3784;54.098;9.998;2022-10-16T12:47:58;7.90;;;2.40;;
7485;SDS011;3784;54.098;9.998;2022-10-16T12:53:03;6.83;;;2.13;;
7485;SDS011;3784;54.098;9.998;2022-10-16T12:55:53;7.90;;;2.40;;
7485;SDS011;3784;54.098;9.998;2022-10-16T13:09:47;7.80;;;2.67;;
7485;SDS011;3784;54.098;9.998;2022-10-16T13:14:54;7.03;;;2.67;;
7485;SDS011;3784;54.098;9.998;2022-10-16T13:17:45;7.93;;;2.47;;
7485;SDS011;3784;54.098;9.998;2022-10-16T13:23:13;6.57;;;2.00;;
7485;SDS011;3784;54.098;9.998;2022-10-16T13:28:35;6.83;;;2.37;;
7485;SDS011;3784;54.098;9.998;2022-10-16T13:31:02;4.60;;;1.87;;
7485;SDS011;3784;54.098;9.998;2022-10-16T13:36:00;4.53;;;1.87;;
7485;SDS011;3784;54.098;9.998;2022-10-16T13:38:28;5.57;;;2.07;;
7485;SDS011;3784;54.098;9.998;2022-10-16T13:40:57;6.67;;;2.40;;
7485;SDS011;3784;54.098;9.998;2022-10-16T13:43:34;4.63;;;1.77;;
7485;SDS011;3784;54.098;9.998;2022-10-16T13:46:04;5.27;;;1.80;;
7485;SDS011;3784;54.098;9.998;2022-10-16T13:48:32;7.20;;;2.10;;
7485;SDS011;3784;54.098;9.998;2022-10-16T13:51:00;7.80;;;1.97;;
7485;SDS011;3784;54.098;9.998;2022-10-16T13:53:31;7.77;;;2.17;;
7485;SDS011;3784;54.098;9.998;2022-10-16T13:55:58;6.00;;;2.20;;
7485;SDS011;3784;54.098;9.998;2022-10-16T13:58:26;6.77;;;1.80;;
7485;SDS011;3784;54.098;9.998;2022-10-16T14:00:53;10.60;;;2.53;;
7485;SDS011;3784;54.098;9.998;2022-10-16T14:03:22;6.33;;;1.93;;
7485;SDS011;3784;54.098;9.998;2022-10-16T14:05:57;5.00;;;2.60;;
7485;SDS011;3784;54.098;9.998;2022-10-16T14:08:29;6.60;;;2.20;;
7485;SDS011;3784;54.098;9.998;2022-10-16T14:10:57;6.07;;;2.20;;
7485;SDS011;3784;54.098;9.998;2022-10-16T14:13:32;5.00;;;2.00;;
7485;SDS011;3784;54.098;9.998;2022-10-16T14:16:05;7.07;;;2.47;;
7485;SDS011;3784;54.098;9.998;2022-10-16T14:18:34;5.27;;;2.00;;
7485;SDS011;3784;54.098;9.998;2022-10-16T14:21:05;7.53;;;2.23;;
7485;SDS011;3784;54.098;9.998;2022-10-16T14:23:36;9.93;;;2.40;;
7485;SDS011;3784;54.098;9.998;2022-10-16T14:28:37;6.40;;;2.10;;
7485;SDS011;3784;54.098;9.998;2022-10-16T14:31:19;7.43;;;2.77;;
7485;SDS011;3784;54.098;9.998;2022-10-16T14:33:50;4.73;;;2.13;;
7485;SDS011;3784;54.098;9.998;2022-10-16T14:36:17;6.43;;;2.27;;
7485;SDS011;3784;54.098;9.998;2022-10-16T14:38:49;6.13;;;2.50;;
7485;SDS011;3784;54.098;9.998;2022-10-16T14:41:22;7.07;;;2.37;;
7485;SDS011;3784;54.098;9.998;2022-10-16T14:43:53;6.90;;;2.37;;
7485;SDS011;3784;54.098;9.998;2022-10-16T14:46:22;6.30;;;2.10;;
7485;SDS011;3784;54.098;9.998;2022-10-16T14:49:16;5.37;;;2.47;;
7485;SDS011;3784;54.098;9.998;2022-10-16T14:51:43;6.37;;;2.60;;
7485;SDS011;3784;54.098;9.998;2022-10-16T14:54:11;7.57;;;2.47;;
7485;SDS011;3784;54.098;9.998;2022-10-16T14:59:16;3.93;;;2.10;;
7485;SDS011;3784;54.098;9.998;2022-10-16T15:01:46;7.53;;;2.57;;
7485;SDS011;3784;54.098;9.998;2022-10-16T15:04:13;5.50;;;2.73;;
7485;SDS011;3784;54.098;9.998;2022-10-16T15:06:40;4.87;;;2.13;;
7485;SDS011;3784;54.098;9.998;2022-10-16T15:09:07;8.80;;;3.40;;
7485;SDS011;3784;54.098;9.998;2022-10-16T15:11:33;7.83;;;2.43;;
7485;SDS011;3784;54.098;9.998;2022-10-16T15:14:00;8.00;;;3.10;;
7485;SDS011;3784;54.098;9.998;2022-10-16T15:16:27;6.77;;;2.80;;
7485;SDS011;3784;54.098;9.998;2022-10-16T15:18:54;7.13;;;2.70;;
7485;SDS011;3784;54.098;9.998;2022-10-16T15:21:25;8.77;;;3.00;;
7485;SDS011;3784;54.098;9.998;2022-10-16T15:23:53;6.90;;;2.40;;
7485;SDS011;3784;54.098;9.998;2022-10-16T15:26:20;7.67;;;2.60;;
7485;SDS011;3784;54.098;9.998;2022-10-16T15:28:47;7.50;;;2.40;;
7485;SDS011;3784;54.098;9.998;2022-10-16T15:31:13;6.43;;;2.57;;
7485;SDS011;3784;54.098;9.998;2022-10-16T15:33:40;5.30;;;2.80;;
7485;SDS011;3784;54.098;9.998;2022-10-16T15:36:07;6.37;;;2.10;;
7485;SDS011;3784;54.098;9.998;2022-10-16T15:38:34;8.30;;;2.70;;
7485;SDS011;3784;54.098;9.998;2022-10-16T15:41:00;8.93;;;2.80;;
7485;SDS011;3784;54.098;9.998;2022-10-16T15:43:27;8.63;;;2.53;;
7485;SDS011;3784;54.098;9.998;2022-10-16T15:46:02;9.53;;;2.77;;
7485;SDS011;3784;54.098;9.998;2022-10-16T15:48:31;11.07;;;3.23;;
7485;SDS011;3784;54.098;9.998;2022-10-16T15:50:59;11.27;;;3.33;;
7485;SDS011;3784;54.098;9.998;2022-10-16T15:53:26;10.00;;;2.93;;
7485;SDS011;3784;54.098;9.998;2022-10-16T15:55:52;11.50;;;3.63;;
7485;SDS011;3784;54.098;9.998;2022-10-16T15:58:19;15.50;;;3.33;;
7485;SDS011;3784;54.098;9.998;2022-10-16T16:00:45;9.13;;;2.80;;
7485;SDS011;3784;54.098;9.998;2022-10-16T16:03:20;11.87;;;3.23;;
7485;SDS011;3784;54.098;9.998;2022-10-16T16:05:47;13.50;;;3.33;;
7485;SDS011;3784;54.098;9.998;2022-10-16T16:10:45;10.60;;;3.33;;
7485;SDS011;3784;54.098;9.998;2022-10-16T16:13:11;8.83;;;3.13;;
7485;SDS011;3784;54.098;9.998;2022-10-16T16:15:39;11.00;;;3.60;;
7485;SDS011;3784;54.098;9.998;2022-10-16T16:18:06;11.33;;;3.50;;
7485;SDS011;3784;54.098;9.998;2022-10-16T16:20:36;8.40;;;2.80;;
7485;SDS011;3784;54.098;9.998;2022-10-16T16:23:02;11.27;;;3.40;;
7485;SDS011;3784;54.098;9.998;2022-10-16T16:25:29;15.40;;;3.67;;
7485;SDS011;3784;54.098;9.998;2022-10-16T16:27:55;10.07;;;3.53;;
7485;SDS011;3784;54.098;9.998;2022-10-16T16:30:22;12.17;;;3.80;;
7485;SDS011;3784;54.098;9.998;2022-10-16T16:32:53;19.63;;;4.63;;
7485;SDS011;3784;54.098;9.998;2022-10-16T16:35:19;11.03;;;3.77;;
7485;SDS011;3784;54.098;9.998;2022-10-16T16:37:46;14.37;;;3.73;;
7485;SDS011;3784;54.098;9.998;2022-10-16T16:40:13;14.47;;;4.07;;
7485;SDS011;3784;54.098;9.998;2022-10-16T16:42:40;13.80;;;3.97;;
7485;SDS011;3784;54.098;9.998;2022-10-16T16:45:06;14.13;;;4.50;;
7485;SDS011;3784;54.098;9.998;2022-10-16T16:47:33;18.13;;;4.60;;
7485;SDS011;3784;54.098;9.998;2022-10-16T16:50:00;12.73;;;5.17;;
7485;SDS011;3784;54.098;9.998;2022-10-16T16:52:30;14.33;;;6.20;;
7485;SDS011;3784;54.098;9.998;2022-10-16T16:54:57;16.80;;;6.27;;
7485;SDS011;3784;54.098;9.998;2022-10-16T16:57:23;15.60;;;6.33;;
7485;SDS011;3784;54.098;9.998;2022-10-16T17:02:22;22.17;;;8.40;;
7485;SDS011;3784;54.098;9.998;2022-10-16T17:04:48;21.63;;;8.53;;
7485;SDS011;3784;54.098;9.998;2022-10-16T17:07:15;13.30;;;6.30;;
7485;SDS011;3784;54.098;9.998;2022-10-16T17:09:44;18.23;;;5.40;;
7485;SDS011;3784;54.098;9.998;2022-10-16T17:12:13;17.47;;;4.70;;
7485;SDS011;3784;54.098;9.998;2022-10-16T17:14:39;14.93;;;4.80;;
7485;SDS011;3784;54.098;9.998;2022-10-16T17:17:06;14.63;;;5.03;;
7485;SDS011;3784;54.098;9.998;2022-10-16T17:19:33;19.57;;;5.17;;
7485;SDS011;3784;54.098;9.998;2022-10-16T17:24:32;16.17;;;6.60;;
7485;SDS011;3784;54.098;9.998;2022-10-16T17:26:58;20.07;;;7.27;;
7485;SDS011;3784;54.098;9.998;2022-10-16T17:29:25;19.10;;;6.83;;
7485;SDS011;3784;54.098;9.998;2022-10-16T17:31:51;18.57;;;6.93;;
7485;SDS011;3784;54.098;9.998;2022-10-16T17:34:22;14.33;;;5.63;;
7485;SDS011;3784;54.098;9.998;2022-10-16T17:36:48;15.63;;;5.73;;